Time;durP1;ratioP1;P1;durP2;ratioP2;P2;SDS_P1;SDS_P2;PMS_P1;PMS_P2;Temp;Humidity;BMP_temperature;BMP_pressure;BME280_temperature;BME280_humidity;BME280_pressure;Samples;Min_cycle;Max_cycle;Signal;HPM_P1;HPM_P2
2023/01/02 00:01:27;;;;;;;0.70;0.70;;;;;;;4.48;73.67;98484.44;5072696;28;20040;-51
2023/01/02 00:03:56;;;;;;;0.55;0.52;;;;;;;4.37;73.99;98476.47;5072905;28;20036;-58
2023/01/02 00:06:22;;;;;;;1.35;0.85;;;;;;;4.33;73.91;98490.91;5072059;28;20456;-60
2023/01/02 00:08:48;;;;;;;0.80;0.63;;;;;;;4.35;74.35;98511.06;5072860;28;20044;-55
2023/01/02 00:11:13;;;;;;;0.73;0.73;;;;;;;4.33;74.25;98512.94;5072571;28;20036;-54
2023/01/02 00:13:39;;;;;;;1.08;0.70;;;;;;;4.19;74.03;98503.41;5072637;28;20032;-56
2023/01/02 00:16:05;;;;;;;0.55;0.47;;;;;;;4.23;74.37;98539.31;5072498;28;20040;-59
2023/01/02 00:18:30;;;;;;;0.70;0.70;;;;;;;4.18;74.68;98535.31;5072906;28;20105;-58
2023/01/02 00:20:55;;;;;;;0.88;0.50;;;;;;;4.13;74.31;98552.41;5072599;28;20080;-58
2023/01/02 00:23:21;;;;;;;0.47;0.43;;;;;;;4.07;74.73;98547.53;5072557;28;20036;-59
2023/01/02 00:25:49;;;;;;;1.23;0.40;;;;;;;4.07;74.84;98544.06;5072482;28;20108;-56
2023/01/02 00:28:15;;;;;;;0.70;0.43;;;;;;;4.01;74.72;98558.59;5072696;28;20032;-51
2023/01/02 00:30:40;;;;;;;0.77;0.50;;;;;;;3.99;74.92;98571.97;5072036;28;20028;-51
2023/01/02 00:33:06;;;;;;;0.80;0.50;;;;;;;3.95;74.82;98569.66;5071573;28;20036;-50
2023/01/02 00:35:32;;;;;;;0.73;0.40;;;;;;;3.95;75.00;98585.53;5072371;28;20036;-54
2023/01/02 00:37:57;;;;;;;0.32;0.30;;;;;;;3.91;75.27;98568.19;5072314;28;20330;-54
2023/01/02 00:40:23;;;;;;;0.70;0.47;;;;;;;3.92;74.71;98577.81;5071796;28;20108;-54
2023/01/02 00:42:48;;;;;;;0.40;0.40;;;;;;;3.86;74.97;98571.16;5072377;28;20036;-54
2023/01/02 00:45:14;;;;;;;1.15;0.45;;;;;;;3.91;75.06;98599.97;5072455;28;20028;-55
2023/01/02 00:47:39;;;;;;;0.40;0.40;;;;;;;3.91;75.38;98618.50;5072365;28;20692;-60
2023/01/02 00:50:05;;;;;;;0.50;0.40;;;;;;;3.84;75.45;98621.56;5072689;28;20035;-55
2023/01/02 00:52:31;;;;;;;0.55;0.52;;;;;;;3.90;74.88;98630.06;5072501;28;20120;-53
2023/01/02 00:54:56;;;;;;;0.90;0.60;;;;;;;3.84;75.35;98632.16;5071756;28;20104;-52
2023/01/02 00:57:22;;;;;;;1.13;0.70;;;;;;;3.80;74.89;98630.69;5071975;28;20112;-53
2023/01/02 00:59:47;;;;;;;1.10;0.80;;;;;;;3.80;75.51;98633.34;5072521;28;20411;-57
2023/01/02 01:02:12;;;;;;;0.93;0.90;;;;;;;3.80;75.28;98638.63;5072287;28;20028;-52
2023/01/02 01:04:38;;;;;;;1.10;0.93;;;;;;;3.82;74.62;98649.97;5072629;28;20036;-54
2023/01/02 01:07:03;;;;;;;1.30;1.20;;;;;;;3.78;75.03;98643.19;5071657;28;20025;-56
2023/01/02 01:09:29;;;;;;;0.93;0.93;;;;;;;3.71;74.87;98648.09;5071834;28;20046;-55
2023/01/02 01:11:54;;;;;;;0.93;0.93;;;;;;;3.64;75.19;98653.94;5071705;28;20020;-56
2023/01/02 01:14:20;;;;;;;0.85;0.80;;;;;;;3.70;74.62;98677.31;5074352;28;20033;-56
2023/01/02 01:16:46;;;;;;;1.08;0.98;;;;;;;3.66;74.57;98683.81;5076498;28;20116;-54
2023/01/02 01:19:11;;;;;;;1.75;1.05;;;;;;;3.55;74.83;98693.31;5076181;28;20108;-57
2023/01/02 01:21:36;;;;;;;1.38;0.90;;;;;;;3.47;75.44;98690.38;5076132;28;20402;-53
2023/01/02 01:24:02;;;;;;;1.23;1.02;;;;;;;3.48;74.83;98700.00;5076577;28;20072;-54
2023/01/02 01:26:28;;;;;;;1.00;0.80;;;;;;;3.30;75.56;98673.03;5076026;28;20357;-51
2023/01/02 01:28:54;;;;;;;1.30;1.05;;;;;;;3.46;75.35;98691.31;5075731;28;20060;-54
2023/01/02 01:31:20;;;;;;;1.70;0.98;;;;;;;3.23;75.62;98662.00;5075999;28;20193;-52
2023/01/02 01:33:46;;;;;;;1.00;0.77;;;;;;;3.42;75.46;98689.84;5076355;28;20036;-53
2023/01/02 01:36:14;;;;;;;1.70;0.70;;;;;;;3.24;74.93;98670.78;5074373;28;20040;-54
2023/01/02 01:38:42;;;;;;;1.52;1.15;;;;;;;3.37;75.10;98713.97;5075979;28;20035;-55
2023/01/02 01:41:09;;;;;;;1.63;0.80;;;;;;;3.35;75.89;98730.91;5076267;28;20031;-52
2023/01/02 01:43:49;;;;;;;0.95;0.65;;;;;;;3.25;75.08;98720.09;5076010;28;20032;-55
2023/01/02 01:46:17;;;;;;;0.98;0.60;;;;;;;3.37;75.75;98737.78;5075185;28;20039;-52
2023/01/02 01:48:44;;;;;;;1.00;0.60;;;;;;;3.33;75.25;98751.31;5075431;28;20076;-58
2023/01/02 01:51:10;;;;;;;0.85;0.40;;;;;;;3.33;74.85;98756.59;5076220;28;20143;-52
2023/01/02 01:53:36;;;;;;;0.43;0.32;;;;;;;3.29;75.26;98762.13;5075932;28;20449;-52
2023/01/02 01:56:06;;;;;;;0.52;0.32;;;;;;;3.09;75.13;98730.88;5074892;28;20112;-57
2023/01/02 01:58:38;;;;;;;0.30;0.28;;;;;;;3.26;75.49;98767.63;5075006;28;20111;-54
2023/01/02 02:01:04;;;;;;;1.10;0.30;;;;;;;3.32;74.96;98782.25;5075709;28;20259;-56
2023/01/02 02:03:32;;;;;;;0.35;0.25;;;;;;;3.43;74.75;98785.00;5075614;28;20029;-54
2023/01/02 02:06:00;;;;;;;0.50;0.40;;;;;;;3.32;74.73;98791.97;5075251;28;20035;-53
2023/01/02 02:08:48;;;;;;;0.77;0.50;;;;;;;3.39;75.13;98793.25;5073963;28;20032;-51
2023/01/02 02:11:14;;;;;;;0.38;0.30;;;;;;;3.11;74.84;98769.50;5075920;28;20031;-57
2023/01/02 02:13:40;;;;;;;2.45;0.50;;;;;;;3.23;74.72;98810.16;5075306;28;20032;-54
2023/01/02 02:16:27;;;;;;;1.20;0.50;;;;;;;3.33;74.92;98815.69;5074330;28;20067;-52
2023/01/02 02:19:18;;;;;;;0.90;0.40;;;;;;;3.36;74.68;98825.19;5074193;28;20028;-56
2023/01/02 02:21:46;;;;;;;1.25;0.30;;;;;;;3.39;74.46;98832.94;5075495;28;20475;-53
2023/01/02 02:24:24;;;;;;;0.65;0.30;;;;;;;3.37;74.48;98848.06;5074698;28;20048;-53
2023/01/02 02:27:26;;;;;;;1.15;0.40;;;;;;;3.39;74.60;98854.13;5074829;28;20040;-54
2023/01/02 02:30:01;;;;;;;0.50;0.30;;;;;;;3.25;74.21;98849.72;5074638;28;20021;-54
2023/01/02 02:32:51;;;;;;;0.52;0.30;;;;;;;3.42;74.38;98853.91;5074545;28;20052;-50
2023/01/02 02:35:37;;;;;;;0.20;0.20;;;;;;;3.33;73.98;98862.44;5074801;28;20083;-51
2023/01/02 02:38:05;;;;;;;0.45;0.30;;;;;;;3.23;74.14;98864.84;5074285;28;20352;-56
2023/01/02 02:40:49;;;;;;;0.40;0.20;;;;;;;3.29;73.60;98873.22;5073751;28;20043;-54
2023/01/02 02:43:27;;;;;;;0.20;0.20;;;;;;;3.28;72.93;98868.88;5074863;28;20135;-51
2023/01/02 02:46:11;;;;;;;0.50;0.20;;;;;;;3.28;73.62;98870.69;5074617;28;20036;-52
2023/01/02 02:49:04;;;;;;;0.22;0.22;;;;;;;3.37;73.38;98890.38;5074252;28;20067;-51
2023/01/02 02:51:40;;;;;;;0.13;0.13;;;;;;;3.30;73.26;98898.72;5074248;28;20879;-52
2023/01/02 02:54:14;;;;;;;0.30;0.10;;;;;;;3.24;73.19;98916.78;5074796;28;20043;-53
2023/01/02 02:56:41;;;;;;;0.60;0.20;;;;;;;3.10;72.92;98915.03;5074138;28;20028;-53
2023/01/02 02:59:08;;;;;;;0.43;0.17;;;;;;;2.95;73.40;98922.16;5074248;28;20032;-55
2023/01/02 03:01:34;;;;;;;0.30;0.20;;;;;;;2.89;72.98;98920.75;5074292;28;20367;-55
2023/01/02 03:04:00;;;;;;;0.30;0.10;;;;;;;2.80;73.10;98924.84;5074186;28;20032;-57
2023/01/02 03:06:43;;;;;;;0.40;0.10;;;;;;;2.78;74.00;98933.81;5073609;28;20177;-55
2023/01/02 03:09:21;;;;;;;0.20;0.13;;;;;;;2.67;73.96;98908.06;5074225;28;20091;-53
2023/01/02 03:12:20;;;;;;;0.73;0.10;;;;;;;2.91;74.17;98942.69;5073755;28;20044;-55
2023/01/02 03:15:23;;;;;;;0.10;0.10;;;;;;;2.93;73.38;98948.72;5074281;28;20036;-53
2023/01/02 03:18:10;;;;;;;0.43;0.20;;;;;;;2.84;73.71;98957.22;5074261;28;20526;-56
2023/01/02 03:20:43;;;;;;;0.30;0.10;;;;;;;2.79;73.52;98954.88;5074070;28;20029;-52
2023/01/02 03:23:14;;;;;;;0.40;0.10;;;;;;;2.80;73.27;98966.28;5073748;28;20794;-51
2023/01/02 03:25:42;;;;;;;0.20;0.20;;;;;;;2.72;73.48;98982.63;5073645;28;20033;-50
2023/01/02 03:28:09;;;;;;;1.42;0.20;;;;;;;2.68;72.80;98991.69;5073744;28;20033;-52
2023/01/02 03:30:37;;;;;;;1.85;0.20;;;;;;;2.58;73.17;98984.34;5073219;28;20028;-53
2023/01/02 03:33:14;;;;;;;0.52;0.20;;;;;;;2.63;73.17;99001.69;5073271;28;20044;-53
2023/01/02 03:35:45;;;;;;;1.27;0.30;;;;;;;2.44;72.60;98995.75;5073754;28;20090;-54
2023/01/02 03:38:15;;;;;;;0.93;0.10;;;;;;;2.51;72.61;99013.88;5072327;28;20546;-55
2023/01/02 03:40:46;;;;;;;1.65;0.38;;;;;;;2.47;72.26;99030.84;5073617;28;20040;-53
2023/01/02 03:43:22;;;;;;;1.05;0.30;;;;;;;2.38;72.56;99013.75;5072876;28;20439;-54
2023/01/02 03:45:57;;;;;;;3.05;0.40;;;;;;;2.33;71.76;99026.41;5073845;28;20036;-54
2023/01/02 03:48:33;;;;;;;0.40;0.25;;;;;;;2.47;71.87;99036.13;5073668;28;20123;-54
2023/01/02 03:51:01;;;;;;;1.27;0.40;;;;;;;2.36;72.03;99044.69;5073008;28;20117;-53
2023/01/02 03:53:27;;;;;;;1.80;0.30;;;;;;;2.26;71.66;99052.31;5072969;28;20441;-53
2023/01/02 03:55:58;;;;;;;0.35;0.20;;;;;;;2.26;71.72;99066.34;5073518;28;20033;-55
2023/01/02 03:58:38;;;;;;;1.48;0.30;;;;;;;2.18;72.01;99060.69;5073671;28;20054;-55
2023/01/02 04:01:10;;;;;;;0.73;0.32;;;;;;;2.12;72.38;99067.16;5072724;28;20367;-57
2023/01/02 04:03:44;;;;;;;0.30;0.30;;;;;;;2.03;72.36;99065.06;5073014;28;20105;-55
2023/01/02 04:06:26;;;;;;;2.08;0.50;;;;;;;1.93;71.75;99059.47;5073198;28;20094;-56
2023/01/02 04:09:03;;;;;;;0.40;0.40;;;;;;;1.82;72.12;99075.91;5073301;28;20036;-55
2023/01/02 04:11:30;;;;;;;1.30;0.30;;;;;;;1.49;72.10;99050.50;5072594;28;20108;-58
2023/01/02 04:14:03;;;;;;;0.32;0.20;;;;;;;1.61;72.35;99098.22;5072943;28;20035;-50
2023/01/02 04:16:33;;;;;;;2.95;0.45;;;;;;;1.55;72.64;99092.34;5072803;28;20074;-49
2023/01/02 04:19:04;;;;;;;1.52;1.42;;;;;;;1.48;72.72;99096.28;5072747;28;20037;-51
2023/01/02 04:21:33;;;;;;;0.50;0.20;;;;;;;1.41;72.47;99086.97;5072327;28;20027;-56
2023/01/02 04:24:06;;;;;;;0.77;0.40;;;;;;;1.46;72.63;99098.16;5072465;28;20116;-55
2023/01/02 04:26:43;;;;;;;1.58;0.60;;;;;;;1.37;72.94;99101.25;5072579;28;20169;-50
2023/01/02 04:29:09;;;;;;;1.77;0.55;;;;;;;1.24;73.30;99106.34;5072526;28;20050;-56
2023/01/02 04:32:07;;;;;;;0.77;0.47;;;;;;;1.32;73.27;99108.59;5072425;28;20046;-55
2023/01/02 04:34:35;;;;;;;0.63;0.35;;;;;;;1.39;72.50;99109.94;5072218;28;20037;-55
2023/01/02 04:37:01;;;;;;;2.83;0.65;;;;;;;1.21;72.39;99107.38;5072411;28;20103;-53
2023/01/02 04:39:28;;;;;;;2.10;0.38;;;;;;;0.88;72.88;99076.59;5071819;28;20143;-54
2023/01/02 04:41:54;;;;;;;1.67;0.50;;;;;;;1.14;73.01;99116.53;5072184;28;20039;-52
2023/01/02 04:44:19;;;;;;;2.50;0.43;;;;;;;1.17;72.08;99118.16;5071857;28;20127;-53
2023/01/02 04:46:44;;;;;;;2.78;0.85;;;;;;;1.08;72.43;99135.31;5071211;28;20116;-51
2023/01/02 04:49:10;;;;;;;0.85;0.35;;;;;;;0.98;72.86;99133.19;5071637;28;20475;-51
2023/01/02 04:51:35;;;;;;;0.85;0.55;;;;;;;0.91;73.22;99147.59;5071229;28;20055;-51
2023/01/02 04:54:01;;;;;;;2.03;0.55;;;;;;;0.84;73.41;99156.75;5072262;28;20447;-54
2023/01/02 04:56:26;;;;;;;0.80;0.40;;;;;;;0.86;73.49;99162.78;5072026;28;20471;-54
2023/01/02 04:58:51;;;;;;;2.65;0.45;;;;;;;0.84;73.15;99167.28;5055156;28;20067;-54
2023/01/02 05:01:19;;;;;;;1.75;0.43;;;;;;;0.83;73.38;99170.88;5072190;28;20049;-58
2023/01/02 05:03:46;;;;;;;2.47;0.40;;;;;;;0.81;73.62;99181.47;5072045;28;20516;-53
2023/01/02 05:06:13;;;;;;;1.73;0.60;;;;;;;0.54;73.75;99133.69;5071335;28;20024;-54
2023/01/02 05:08:38;;;;;;;0.88;0.55;;;;;;;0.76;73.88;99172.13;5071409;28;20409;-51
2023/01/02 05:11:15;;;;;;;1.10;0.50;;;;;;;0.90;73.31;99193.34;5072074;28;20028;-50
2023/01/02 05:13:41;;;;;;;1.98;0.50;;;;;;;0.71;73.38;99198.69;5072567;28;20100;-56
2023/01/02 05:16:07;;;;;;;0.73;0.35;;;;;;;0.65;74.07;99209.53;5072195;28;20363;-55
2023/01/02 05:18:33;;;;;;;2.35;0.40;;;;;;;0.61;73.95;99211.47;5071852;28;20043;-55
2023/01/02 05:21:03;;;;;;;0.90;0.35;;;;;;;0.56;73.77;99219.59;5071692;28;20024;-57
2023/01/02 05:23:47;;;;;;;2.13;0.50;;;;;;;0.50;74.04;99237.50;5072329;28;20029;-55
2023/01/02 05:26:13;;;;;;;1.42;0.60;;;;;;;0.48;73.78;99241.94;5072250;28;20157;-56
2023/01/02 05:28:39;;;;;;;1.90;0.40;;;;;;;0.37;73.99;99209.09;5071698;28;20032;-54
2023/01/02 05:31:04;;;;;;;1.98;0.50;;;;;;;0.42;74.32;99233.44;5071960;28;20495;-54
2023/01/02 05:33:30;;;;;;;0.98;0.40;;;;;;;0.40;73.55;99219.47;5071994;28;20036;-55
2023/01/02 05:35:55;;;;;;;1.73;0.55;;;;;;;0.55;73.05;99225.78;5072209;28;20029;-61
2023/01/02 05:38:21;;;;;;;1.75;0.60;;;;;;;0.49;72.91;99241.06;5071831;28;20421;-57
2023/01/02 05:40:46;;;;;;;1.83;0.40;;;;;;;0.43;72.87;99245.66;5072025;28;20420;-54
2023/01/02 05:43:12;;;;;;;0.57;0.25;;;;;;;0.36;72.77;99257.44;5071744;28;20036;-62
2023/01/02 05:45:37;;;;;;;3.28;0.60;;;;;;;0.35;72.82;99271.53;5071983;28;20029;-58
2023/01/02 05:48:03;;;;;;;2.35;0.50;;;;;;;0.36;73.04;99273.22;5071430;28;20403;-61
2023/01/02 05:50:28;;;;;;;2.83;0.43;;;;;;;0.33;72.70;99278.66;5071903;28;20025;-61
2023/01/02 05:52:54;;;;;;;2.33;0.50;;;;;;;0.25;73.17;99280.78;5072359;28;20028;-70
2023/01/02 05:55:20;;;;;;;1.27;0.38;;;;;;;0.20;72.94;99286.25;5070464;28;20089;-56
2023/01/02 05:57:45;;;;;;;1.33;0.63;;;;;;;0.20;72.91;99293.28;5069730;28;20036;-58
2023/01/02 06:00:12;;;;;;;2.20;0.60;;;;;;;0.17;73.32;99301.34;5071737;28;20028;-56
2023/01/02 06:02:37;;;;;;;0.98;0.43;;;;;;;0.20;73.10;99306.47;5075457;28;20028;-57
2023/01/02 06:05:03;;;;;;;0.88;0.60;;;;;;;0.23;73.28;99308.94;5068787;28;20025;-58
2023/01/02 06:07:29;;;;;;;1.55;0.40;;;;;;;0.32;73.33;99318.22;5074555;28;20107;-55
2023/01/02 06:09:54;;;;;;;1.20;0.40;;;;;;;0.43;72.16;99332.56;5072854;28;20496;-50
2023/01/02 06:12:20;;;;;;;0.73;0.40;;;;;;;0.38;71.86;99329.31;5074165;28;20033;-56
2023/01/02 06:14:45;;;;;;;1.60;0.50;;;;;;;0.35;71.93;99342.63;5074661;28;20046;-58
2023/01/02 06:17:10;;;;;;;1.85;0.30;;;;;;;0.34;71.65;99335.66;5074464;28;20274;-54
2023/01/02 06:19:36;;;;;;;1.92;0.68;;;;;;;0.34;71.33;99338.28;5074898;28;20456;-56
2023/01/02 06:22:01;;;;;;;1.75;0.80;;;;;;;0.36;71.04;99352.22;5072327;28;20397;-51
2023/01/02 06:24:27;;;;;;;1.20;0.30;;;;;;;0.27;70.69;99337.72;5075079;28;20068;-52
2023/01/02 06:26:54;;;;;;;1.30;0.40;;;;;;;0.43;70.80;99345.75;5074808;28;20052;-51
2023/01/02 06:29:20;;;;;;;1.85;0.57;;;;;;;0.45;70.10;99361.50;5074718;28;20040;-54
2023/01/02 06:31:46;;;;;;;0.47;0.40;;;;;;;0.48;70.11;99376.28;5074496;28;20071;-51
2023/01/02 06:34:11;;;;;;;2.17;0.50;;;;;;;0.40;69.84;99369.59;5074681;28;20101;-56
2023/01/02 06:36:37;;;;;;;2.63;0.63;;;;;;;0.38;69.72;99381.97;5074675;28;20039;-55
2023/01/02 06:39:02;;;;;;;1.70;0.40;;;;;;;0.43;69.80;99382.63;5073838;28;20028;-53
2023/01/02 06:41:28;;;;;;;2.00;0.60;;;;;;;0.54;69.50;99391.81;5073627;28;20025;-55
2023/01/02 06:43:54;;;;;;;1.83;0.38;;;;;;;0.55;69.01;99390.91;5073795;28;20522;-57
2023/01/02 06:46:21;;;;;;;2.72;0.65;;;;;;;0.60;68.46;99394.16;5074152;28;20029;-58
2023/01/02 06:48:48;;;;;;;1.38;0.40;;;;;;;0.72;68.12;99395.38;5071906;28;20115;-56
2023/01/02 06:51:19;;;;;;;2.58;0.70;;;;;;;1.35;67.73;99401.19;5074367;28;20032;-56
2023/01/02 06:53:45;;;;;;;1.80;0.60;;;;;;;3.62;62.08;99381.13;5074452;28;20089;-53
2023/01/02 06:56:11;;;;;;;6.80;0.52;;;;;;;6.77;53.79;99405.13;5074257;28;20115;-56
2023/01/02 06:58:37;;;;;;;4.13;0.60;;;;;;;9.47;46.53;99413.91;5073710;28;20445;-56
2023/01/02 07:01:05;;;;;;;1.42;0.60;;;;;;;11.19;41.66;99388.47;5073397;28;20524;-58
2023/01/02 07:03:31;;;;;;;1.92;0.50;;;;;;;12.34;39.27;99403.97;5073912;28;20460;-60
2023/01/02 07:06:01;;;;;;;1.33;0.40;;;;;;;12.45;39.54;99425.25;5073957;28;20020;-57
2023/01/02 07:08:27;;;;;;;1.58;0.52;;;;;;;11.86;38.69;99428.03;5074526;28;20123;-57
2023/01/02 07:10:52;;;;;;;1.88;0.68;;;;;;;11.77;38.59;99423.50;5073871;28;20248;-58
2023/01/02 07:13:18;;;;;;;1.55;0.70;;;;;;;12.41;37.17;99428.38;5073012;28;20487;-54
2023/01/02 07:15:43;;;;;;;1.73;0.80;;;;;;;13.51;35.01;99433.97;5073691;28;20356;-59
2023/01/02 07:18:09;;;;;;;1.95;0.65;;;;;;;14.62;32.89;99426.38;5072850;28;20333;-59
2023/01/02 07:20:34;;;;;;;2.63;0.57;;;;;;;15.77;30.64;99433.19;5073589;28;20037;-60
2023/01/02 07:22:59;;;;;;;1.17;0.57;;;;;;;16.32;28.70;99425.44;5073136;28;20063;-58
2023/01/02 07:25:25;;;;;;;1.67;0.60;;;;;;;16.58;28.40;99432.47;5073624;28;20508;-56
2023/01/02 07:27:50;;;;;;;3.17;0.73;;;;;;;16.81;27.31;99442.53;5070001;28;20043;-55
2023/01/02 07:30:16;;;;;;;2.72;0.70;;;;;;;16.38;27.65;99449.06;5072588;28;20048;-52
2023/01/02 07:32:42;;;;;;;1.48;0.60;;;;;;;15.41;29.23;99463.13;5072945;28;20498;-55
2023/01/02 07:35:08;;;;;;;2.08;0.52;;;;;;;13.88;30.17;99472.47;5072977;28;20121;-51
2023/01/02 07:37:33;;;;;;;1.80;0.50;;;;;;;12.03;32.95;99453.31;5073618;28;20055;-57
2023/01/02 07:39:58;;;;;;;1.27;0.50;;;;;;;10.45;35.69;99462.78;5073925;28;20090;-51
2023/01/02 07:42:24;;;;;;;2.47;0.90;;;;;;;9.12;38.06;99463.88;5072386;28;20508;-57
2023/01/02 07:44:49;;;;;;;1.23;0.68;;;;;;;7.76;41.02;99464.50;5073450;28;20028;-58
2023/01/02 07:47:15;;;;;;;3.47;0.60;;;;;;;6.66;43.20;99462.59;5072863;28;20024;-55
2023/01/02 07:49:40;;;;;;;3.20;0.60;;;;;;;5.81;45.24;99453.25;5072815;28;20111;-55
2023/01/02 07:52:10;;;;;;;2.72;0.95;;;;;;;5.28;46.72;99469.94;5073339;28;20032;-55
2023/01/02 07:54:36;;;;;;;2.75;0.73;;;;;;;4.72;47.70;99470.78;5071985;28;20465;-54
2023/01/02 07:57:01;;;;;;;1.35;0.52;;;;;;;4.26;48.44;99468.28;5073610;28;20036;-50
2023/01/02 07:59:27;;;;;;;2.40;0.50;;;;;;;3.94;49.67;99455.19;5074091;28;20055;-57
2023/01/02 08:01:52;;;;;;;2.30;0.63;;;;;;;3.77;50.74;99470.25;5073152;28;20056;-54
2023/01/02 08:04:17;;;;;;;2.80;0.60;;;;;;;3.50;51.18;99478.84;5073020;28;20024;-56
2023/01/02 08:06:43;;;;;;;1.65;1.05;;;;;;;3.41;51.48;99487.31;5073386;28;20046;-51
2023/01/02 08:09:08;;;;;;;3.13;0.93;;;;;;;3.20;52.13;99498.16;5073030;28;20101;-55
2023/01/02 08:11:34;;;;;;;2.38;0.73;;;;;;;3.10;52.55;99492.53;5072793;28;20036;-50
2023/01/02 08:13:59;;;;;;;2.92;0.52;;;;;;;3.00;52.45;99486.00;5073018;28;20029;-54
2023/01/02 08:16:25;;;;;;;0.63;0.43;;;;;;;3.05;52.23;99494.56;5072823;28;20036;-54
2023/01/02 08:18:54;;;;;;;1.42;0.50;;;;;;;3.07;52.09;99490.06;5072110;28;20034;-53
2023/01/02 08:21:20;;;;;;;0.77;0.40;;;;;;;2.97;52.87;99500.28;5072803;28;20032;-50
2023/01/02 08:23:46;;;;;;;2.00;0.60;;;;;;;2.90;53.19;99504.22;5072486;28;20033;-52
2023/01/02 08:26:11;;;;;;;1.52;0.50;;;;;;;2.95;53.19;99506.56;5073073;28;20036;-53
2023/01/02 08:28:39;;;;;;;1.67;0.50;;;;;;;2.93;52.91;99509.31;5072454;28;20039;-53
2023/01/02 08:31:16;;;;;;;2.65;0.82;;;;;;;2.96;53.35;99505.63;5072574;28;20041;-54
2023/01/02 08:33:43;;;;;;;1.17;0.50;;;;;;;2.90;52.83;99505.97;5072646;28;20194;-55
2023/01/02 08:36:08;;;;;;;2.05;0.60;;;;;;;3.00;52.30;99510.69;5072606;28;20033;-54
2023/01/02 08:38:34;;;;;;;1.92;0.60;;;;;;;2.94;52.46;99518.09;5104996;28;20039;-56
2023/01/02 08:41:00;;;;;;;1.35;0.50;;;;;;;2.93;52.72;99509.31;5073079;28;20033;-57
2023/01/02 08:43:26;;;;;;;3.08;0.90;;;;;;;2.98;52.96;99515.22;5072445;28;20032;-55
2023/01/02 08:45:53;;;;;;;2.40;0.65;;;;;;;2.79;52.72;99511.84;5071640;28;20115;-55
2023/01/02 08:48:18;;;;;;;4.30;0.40;;;;;;;2.86;52.15;99505.28;5072842;28;20403;-55
2023/01/02 08:50:44;;;;;;;3.65;0.73;;;;;;;2.81;52.85;99513.47;5072306;28;20467;-56
2023/01/02 08:53:09;;;;;;;2.70;0.85;;;;;;;2.74;52.62;99512.06;5072242;28;20104;-54
2023/01/02 08:55:34;;;;;;;0.88;0.50;;;;;;;2.76;52.45;99520.78;5072462;28;20056;-57
2023/01/02 08:58:00;;;;;;;2.85;0.50;;;;;;;2.77;52.77;99530.41;5072762;28;20129;-56
2023/01/02 09:00:25;;;;;;;0.90;0.55;;;;;;;2.78;52.69;99526.00;5071727;28;20056;-52
2023/01/02 09:02:51;;;;;;;1.08;0.50;;;;;;;2.73;52.40;99536.81;5072226;28;20125;-51
2023/01/02 09:05:16;;;;;;;2.13;0.68;;;;;;;2.69;52.50;99525.56;5072745;28;20032;-55
2023/01/02 09:07:42;;;;;;;2.38;0.70;;;;;;;2.67;52.93;99534.50;5072159;28;20048;-55
2023/01/02 09:10:08;;;;;;;2.10;0.70;;;;;;;2.66;52.33;99543.38;5071952;28;20035;-53
2023/01/02 09:12:34;;;;;;;2.03;0.60;;;;;;;2.55;52.74;99551.84;5072377;28;20024;-54
2023/01/02 09:15:00;;;;;;;3.17;0.73;;;;;;;2.54;52.80;99551.00;5072540;28;20039;-54
2023/01/02 09:17:25;;;;;;;2.67;0.70;;;;;;;2.49;52.81;99562.75;5071901;28;20353;-55
2023/01/02 09:19:51;;;;;;;4.13;0.70;;;;;;;2.46;52.72;99560.25;5071764;28;20029;-50
2023/01/02 09:22:16;;;;;;;0.82;0.52;;;;;;;2.37;52.83;99570.34;5072085;28;20437;-50
2023/01/02 09:24:41;;;;;;;3.22;0.90;;;;;;;2.32;52.87;99572.38;5072149;28;20044;-52
2023/01/02 09:27:07;;;;;;;1.27;0.57;;;;;;;2.30;53.44;99576.88;5071748;28;20024;-53
2023/01/02 09:29:32;;;;;;;1.65;0.50;;;;;;;2.11;53.08;99561.94;5072121;28;20033;-52
2023/01/02 09:31:59;;;;;;;4.10;0.95;;;;;;;2.24;53.26;99585.97;5071833;28;20129;-56
2023/01/02 09:34:25;;;;;;;1.30;0.70;;;;;;;2.15;53.04;99573.22;5071640;28;20169;-55
2023/01/02 09:36:50;;;;;;;1.35;0.60;;;;;;;2.09;53.12;99557.69;5075658;28;20047;-52
2023/01/02 09:39:16;;;;;;;1.85;0.60;;;;;;;2.10;53.36;99597.22;5075534;28;20097;-55
2023/01/02 09:41:45;;;;;;;2.15;0.50;;;;;;;1.97;53.63;99601.41;5075842;28;20078;-50
2023/01/02 09:44:20;;;;;;;1.50;0.50;;;;;;;2.07;53.82;99607.09;5076095;28;20090;-56
2023/01/02 09:47:05;;;;;;;2.03;0.98;;;;;;;2.18;53.58;99606.56;5075920;28;20046;-54
2023/01/02 09:49:55;;;;;;;1.65;0.73;;;;;;;2.09;53.81;99606.06;5075127;28;20066;-55
2023/01/02 09:52:26;;;;;;;2.63;0.43;;;;;;;2.02;53.51;99609.94;5075586;28;20067;-56
2023/01/02 09:54:51;;;;;;;2.63;0.57;;;;;;;1.93;53.73;99597.19;5075778;28;20047;-57
2023/01/02 09:57:26;;;;;;;2.22;0.68;;;;;;;1.93;53.66;99605.09;5075354;28;20029;-52
2023/01/02 10:00:03;;;;;;;2.47;0.73;;;;;;;1.99;53.46;99604.81;5075052;28;20036;-55
2023/01/02 10:02:39;;;;;;;2.22;0.63;;;;;;;1.94;53.33;99612.13;5075792;28;20577;-53
2023/01/02 10:05:17;;;;;;;1.77;0.70;;;;;;;1.97;53.45;99622.53;5075624;28;20090;-55
2023/01/02 10:08:07;;;;;;;1.42;0.40;;;;;;;1.94;53.15;99620.03;5074958;28;20456;-53
2023/01/02 10:10:42;;;;;;;3.83;1.02;;;;;;;1.83;53.29;99616.13;5075017;28;20066;-51
2023/01/02 10:13:35;;;;;;;1.80;0.60;;;;;;;1.87;53.85;99614.19;5074690;28;20033;-55
2023/01/02 10:16:05;;;;;;;1.23;0.60;;;;;;;1.82;53.95;99614.41;5075201;28;20084;-55
2023/01/02 10:18:37;;;;;;;3.15;0.70;;;;;;;1.83;53.18;99620.56;5074808;28;20395;-53
2023/01/02 10:21:08;;;;;;;1.55;0.45;;;;;;;1.86;53.13;99626.53;5075125;28;20034;-57
2023/01/02 10:23:59;;;;;;;1.75;0.88;;;;;;;1.97;52.83;99639.22;5074239;28;20085;-55
2023/01/02 10:26:31;;;;;;;2.15;0.60;;;;;;;1.96;53.05;99639.31;5066337;28;20426;-55
2023/01/02 10:29:27;;;;;;;3.08;0.70;;;;;;;1.91;53.15;99654.50;5074871;28;20050;-52
2023/01/02 10:32:03;;;;;;;1.08;0.55;;;;;;;1.75;52.91;99622.69;5074843;28;20068;-55
2023/01/02 10:34:39;;;;;;;2.53;0.82;;;;;;;1.99;52.42;99663.75;5074799;28;20090;-54
2023/01/02 10:37:12;;;;;;;1.88;0.80;;;;;;;2.14;51.96;99672.72;5074787;28;20059;-55
2023/01/02 10:39:38;;;;;;;2.88;0.70;;;;;;;2.05;51.89;99669.66;5074732;28;20039;-56
2023/01/02 10:42:05;;;;;;;1.83;0.60;;;;;;;1.99;51.96;99661.13;5074678;28;20029;-55
2023/01/02 10:44:37;;;;;;;2.65;0.75;;;;;;;1.86;52.26;99636.25;5074861;28;20036;-55
2023/01/02 10:47:23;;;;;;;1.33;0.70;;;;;;;2.05;52.01;99662.63;5073113;28;20046;-55
2023/01/02 10:49:51;;;;;;;2.97;0.75;;;;;;;2.12;51.38;99689.59;5073784;28;20050;-54
2023/01/02 10:52:32;;;;;;;1.30;0.50;;;;;;;2.05;51.92;99691.66;5074654;28;20064;-53
2023/01/02 10:54:58;;;;;;;2.83;0.82;;;;;;;1.89;52.02;99695.94;5074128;28;20032;-55
2023/01/02 10:57:49;;;;;;;2.08;0.70;;;;;;;1.89;53.05;99709.16;5074052;28;20040;-56
2023/01/02 11:00:18;;;;;;;1.63;0.80;;;;;;;1.98;51.78;99700.81;5074424;28;20036;-54
2023/01/02 11:02:50;;;;;;;3.90;1.05;;;;;;;2.03;52.35;99706.72;5073758;28;20042;-55
2023/01/02 11:05:22;;;;;;;2.58;0.95;;;;;;;1.84;52.16;99707.59;5073036;28;20424;-54
2023/01/02 11:07:49;;;;;;;2.83;1.05;;;;;;;1.75;52.63;99712.44;5074081;28;20070;-51
2023/01/02 11:10:22;;;;;;;2.40;0.88;;;;;;;1.76;52.99;99716.78;5074526;28;20112;-55
2023/01/02 11:12:48;;;;;;;3.88;1.15;;;;;;;1.67;52.33;99723.34;5073034;28;20035;-56
2023/01/02 11:15:24;;;;;;;3.50;0.70;;;;;;;1.63;53.05;99729.69;5073729;28;20021;-58
2023/01/02 11:17:49;;;;;;;2.70;0.90;;;;;;;1.69;52.80;99734.72;5074315;28;20044;-56
2023/01/02 11:20:24;;;;;;;1.75;0.90;;;;;;;1.61;53.20;99752.66;5074280;28;20479;-56
2023/01/02 11:22:50;;;;;;;3.78;0.98;;;;;;;1.45;53.19;99761.25;5073690;28;20033;-55
2023/01/02 11:25:22;;;;;;;3.05;1.00;;;;;;;1.18;53.55;99736.94;5074054;28;20055;-51
2023/01/02 11:27:48;;;;;;;4.97;1.00;;;;;;;1.41;52.96;99771.09;5073630;28;20469;-56
2023/01/02 11:30:27;;;;;;;1.67;0.80;;;;;;;1.36;53.38;99790.66;5073660;28;20100;-55
2023/01/02 11:33:06;;;;;;;3.92;0.80;;;;;;;1.29;53.75;99796.22;5073314;28;20078;-55
2023/01/02 11:35:49;;;;;;;3.47;0.85;;;;;;;1.26;54.35;99792.84;5071790;28;20449;-55
2023/01/02 11:38:22;;;;;;;2.38;0.80;;;;;;;0.99;54.12;99757.03;5072143;28;20041;-57
2023/01/02 11:40:54;;;;;;;1.85;0.88;;;;;;;1.13;54.71;99790.72;5073512;28;20506;-55
2023/01/02 11:46:36;;;;;;;3.58;1.02;;;;;;;1.13;55.19;99789.88;5063997;28;20028;-52
2023/01/02 11:49:16;;;;;;;2.60;0.80;;;;;;;1.08;55.30;99791.84;5062315;28;20072;-53
2023/01/02 11:51:42;;;;;;;4.55;1.00;;;;;;;1.04;54.42;99792.91;5098324;28;20064;-53
2023/01/02 11:54:16;;;;;;;2.60;0.95;;;;;;;0.79;54.82;99778.09;5072387;28;20052;-53
2023/01/02 11:56:44;;;;;;;4.53;0.90;;;;;;;0.92;55.10;99808.28;5073382;28;20093;-54